Redford Township, Michigan
Current Conditions -  °F | °C
As of 10:19 AM on Saturday 22 Nov 2014 (Local Time) from KVLL Reporting Station
Haze Haze  
Wind Chill: 25°   Ceiling: 800
Heat Index: 34°   Visibility: 4mi
Dew Point: 32°   Wind: 12mph
Humidity: 93%   Direction: 210°SSW
Pressure: 30.09"   Gusts: 16mph
Location:  42.4239°N, 83.3013°W
Report Text: KVLL 221519Z AUTO 21010G14KT 4SM BR OVC008 01/00 A3009 RMK AO2
Loading
Personal Weather Stations






























Interactive Weather Map New forecast layout! Learn more

10-Day Weather Forecast

Advertisements
Track Severe Weather on mobile